Time;durP1;ratioP1;P1;durP2;ratioP2;P2;SDS_P1;SDS_P2;PMS_P1;PMS_P2;Temp;Humidity;BMP_temperature;BMP_pressure;BME280_temperature;BME280_humidity;BME280_pressure;Samples;Min_cycle;Max_cycle;Signal;HPM_P1;HPM_P2
2023/12/27 00:02:01;;;;;;;6.43;1.77;;;7.00;99.90;;;;;;5146644;28;20181;-51
2023/12/27 00:04:26;;;;;;;7.63;1.98;;;7.00;99.90;;;;;;5145307;28;20027;-51
2023/12/27 00:06:55;;;;;;;6.22;1.90;;;7.00;99.90;;;;;;5146698;28;20257;-51
2023/12/27 00:09:20;;;;;;;5.95;1.40;;;7.00;99.90;;;;;;5146376;28;20047;-50
2023/12/27 00:11:46;;;;;;;2.28;1.10;;;7.00;99.90;;;;;;5146485;28;20040;-48
2023/12/27 00:14:12;;;;;;;4.30;1.63;;;7.00;99.90;;;;;;5146514;28;20239;-50
2023/12/27 00:16:37;;;;;;;4.70;1.50;;;7.00;99.90;;;;;;5146615;28;20023;-49
2023/12/27 00:19:03;;;;;;;2.13;1.17;;;7.00;99.90;;;;;;5146540;28;20055;-50
2023/12/27 00:21:28;;;;;;;2.67;1.17;;;7.00;99.90;;;;;;5146535;28;20027;-48
2023/12/27 00:23:54;;;;;;;1.30;0.88;;;7.00;99.90;;;;;;5146653;28;20058;-48
2023/12/27 00:26:20;;;;;;;3.03;1.25;;;7.10;99.90;;;;;;5146369;28;20034;-48
2023/12/27 00:28:46;;;;;;;4.75;1.67;;;7.10;99.90;;;;;;5146267;28;20015;-51
2023/12/27 00:31:11;;;;;;;3.00;1.00;;;7.10;99.90;;;;;;5146382;28;20097;-48
2023/12/27 00:33:37;;;;;;;2.72;1.20;;;7.10;99.90;;;;;;5145519;27;20027;-51
2023/12/27 00:36:04;;;;;;;1.23;1.02;;;7.10;99.90;;;;;;5150468;27;20098;-51
2023/12/27 00:38:29;;;;;;;6.65;1.27;;;7.10;99.90;;;;;;5149034;27;20332;-51
2023/12/27 00:40:55;;;;;;;3.50;1.00;;;7.10;99.90;;;;;;5149012;27;20027;-49
2023/12/27 00:43:21;;;;;;;4.07;1.58;;;7.10;99.90;;;;;;5150025;27;20170;-51
2023/12/27 00:45:47;;;;;;;2.42;0.90;;;7.10;99.90;;;;;;5150072;27;20158;-51
2023/12/27 00:48:12;;;;;;;1.85;1.17;;;7.10;99.90;;;;;;5150246;27;20226;-51
2023/12/27 00:50:38;;;;;;;2.92;1.10;;;7.20;99.90;;;;;;5148813;27;20019;-48
2023/12/27 00:53:04;;;;;;;3.65;1.35;;;7.10;99.90;;;;;;5150353;27;20040;-50
2023/12/27 00:55:29;;;;;;;3.95;1.58;;;7.10;99.90;;;;;;5149155;27;20091;-51
2023/12/27 00:57:55;;;;;;;1.17;1.00;;;7.10;99.90;;;;;;5149963;27;20322;-49
2023/12/27 01:00:20;;;;;;;4.55;1.00;;;7.10;99.90;;;;;;5150086;27;20041;-50
2023/12/27 01:02:46;;;;;;;3.22;1.20;;;7.10;99.90;;;;;;5150079;27;20031;-51
2023/12/27 01:05:12;;;;;;;3.58;1.30;;;7.20;99.90;;;;;;5149729;27;20023;-51
2023/12/27 01:07:38;;;;;;;2.63;1.00;;;7.20;99.90;;;;;;5149365;27;20042;-52
2023/12/27 01:10:05;;;;;;;1.08;0.70;;;7.30;99.90;;;;;;5149682;27;20236;-52
2023/12/27 01:12:30;;;;;;;0.88;0.60;;;7.40;99.90;;;;;;5149898;27;20035;-50
2023/12/27 01:14:56;;;;;;;1.10;0.60;;;7.50;99.90;;;;;;5149698;27;20031;-48
2023/12/27 01:17:22;;;;;;;0.60;0.60;;;7.70;99.90;;;;;;5148669;27;20102;-48
2023/12/27 01:19:48;;;;;;;2.63;0.85;;;7.70;99.90;;;;;;5149246;27;20049;-48
2023/12/27 01:22:13;;;;;;;0.70;0.70;;;7.80;99.90;;;;;;5149302;27;20188;-48
2023/12/27 01:24:39;;;;;;;0.60;0.60;;;7.80;99.90;;;;;;5149678;27;20058;-49
2023/12/27 01:27:05;;;;;;;0.57;0.50;;;7.80;99.90;;;;;;5149623;27;20030;-48
2023/12/27 01:29:30;;;;;;;1.13;0.68;;;7.80;99.90;;;;;;5149514;27;20039;-48
2023/12/27 01:31:56;;;;;;;1.65;0.65;;;7.80;99.90;;;;;;5148351;27;20303;-49
2023/12/27 01:34:22;;;;;;;1.55;0.70;;;7.80;99.90;;;;;;5149428;27;20015;-48
2023/12/27 01:36:47;;;;;;;3.13;0.70;;;7.90;99.90;;;;;;5148874;27;20090;-48
2023/12/27 01:39:13;;;;;;;1.60;0.70;;;7.90;99.90;;;;;;5148154;27;20273;-48
2023/12/27 01:41:39;;;;;;;1.80;0.80;;;7.90;99.90;;;;;;5149152;27;20019;-48
2023/12/27 01:44:04;;;;;;;2.17;1.10;;;7.90;99.90;;;;;;5149290;27;20023;-47
2023/12/27 01:46:31;;;;;;;0.98;0.60;;;7.90;99.90;;;;;;5148963;27;20285;-48
2023/12/27 01:48:58;;;;;;;0.50;0.50;;;7.90;99.90;;;;;;5148296;27;20027;-49
2023/12/27 01:51:24;;;;;;;0.70;0.63;;;8.00;99.90;;;;;;5148021;27;20023;-47
2023/12/27 01:53:49;;;;;;;2.08;0.90;;;8.20;99.90;;;;;;5148014;27;20023;-48
2023/12/27 01:56:15;;;;;;;2.22;0.70;;;8.20;99.90;;;;;;5148104;27;20300;-47
2023/12/27 01:58:41;;;;;;;1.23;0.60;;;8.20;99.90;;;;;;5147943;27;20349;-48
2023/12/27 02:01:06;;;;;;;0.85;0.57;;;8.20;99.90;;;;;;5148872;27;20027;-48
2023/12/27 02:03:32;;;;;;;0.57;0.52;;;8.30;99.90;;;;;;5148667;27;20023;-47
2023/12/27 02:05:58;;;;;;;1.48;0.70;;;8.30;99.90;;;;;;5147706;27;20038;-48
2023/12/27 02:08:24;;;;;;;0.52;0.52;;;8.30;99.90;;;;;;5148448;27;20047;-47
2023/12/27 02:10:49;;;;;;;2.30;0.60;;;8.30;99.90;;;;;;5147508;27;20034;-48
2023/12/27 02:13:15;;;;;;;0.60;0.60;;;8.40;99.90;;;;;;5148490;27;20228;-48
2023/12/27 02:15:41;;;;;;;1.00;0.80;;;8.40;99.90;;;;;;5148522;27;20157;-47
2023/12/27 02:18:07;;;;;;;1.27;0.73;;;8.40;99.90;;;;;;5147676;27;20046;-47
2023/12/27 02:20:32;;;;;;;1.33;0.70;;;8.40;99.90;;;;;;5148607;27;20027;-48
2023/12/27 02:22:59;;;;;;;0.50;0.50;;;8.50;99.90;;;;;;5147532;27;20027;-48
2023/12/27 02:25:25;;;;;;;0.52;0.50;;;8.50;99.90;;;;;;5147552;27;20079;-49
2023/12/27 02:27:51;;;;;;;0.90;0.90;;;8.50;99.90;;;;;;5130292;27;20054;-48
2023/12/27 02:30:20;;;;;;;0.50;0.50;;;8.60;99.90;;;;;;5148411;27;20038;-48
2023/12/27 02:32:47;;;;;;;1.45;0.80;;;8.60;99.90;;;;;;5148424;27;20109;-49
2023/12/27 02:35:12;;;;;;;1.40;0.60;;;8.60;99.90;;;;;;5147360;27;20030;-48
2023/12/27 02:37:38;;;;;;;0.82;0.60;;;8.60;99.90;;;;;;5148117;27;20023;-48
2023/12/27 02:40:05;;;;;;;0.60;0.60;;;8.60;99.90;;;;;;5148225;27;20253;-48
2023/12/27 02:42:30;;;;;;;0.60;0.60;;;8.60;99.90;;;;;;5147005;27;20037;-48
2023/12/27 02:44:56;;;;;;;1.25;0.70;;;8.60;99.90;;;;;;5148016;27;20035;-48
2023/12/27 02:47:22;;;;;;;2.67;0.77;;;8.60;99.90;;;;;;5146761;27;20039;-48
2023/12/27 02:49:47;;;;;;;0.50;0.50;;;8.80;99.90;;;;;;5147864;27;20019;-49
2023/12/27 02:52:13;;;;;;;0.70;0.70;;;8.80;99.90;;;;;;5148014;27;20051;-48
2023/12/27 02:54:39;;;;;;;0.57;0.57;;;8.80;99.90;;;;;;5147921;27;20023;-48
2023/12/27 02:57:04;;;;;;;0.60;0.60;;;8.80;99.90;;;;;;5146997;27;20027;-49
2023/12/27 02:59:30;;;;;;;0.60;0.60;;;8.80;99.90;;;;;;5147584;27;20099;-45
2023/12/27 03:01:56;;;;;;;0.60;0.60;;;9.00;99.90;;;;;;5146605;27;20031;-46
2023/12/27 03:04:21;;;;;;;0.50;0.50;;;9.10;99.90;;;;;;5147747;27;20031;-46
2023/12/27 03:06:47;;;;;;;1.85;0.63;;;9.30;99.90;;;;;;5146352;27;20031;-47
2023/12/27 03:09:13;;;;;;;0.60;0.60;;;9.50;99.90;;;;;;5147228;27;20058;-48
2023/12/27 03:11:38;;;;;;;2.45;0.70;;;9.60;99.90;;;;;;5147581;27;20047;-48
2023/12/27 03:14:04;;;;;;;1.13;0.60;;;9.60;99.90;;;;;;5147041;27;20031;-49
2023/12/27 03:16:30;;;;;;;0.82;0.50;;;9.50;99.90;;;;;;5147492;27;20277;-48
2023/12/27 03:18:56;;;;;;;1.52;0.95;;;9.50;99.90;;;;;;5147364;27;20034;-48
2023/12/27 03:21:22;;;;;;;0.60;0.60;;;9.30;99.90;;;;;;5147357;27;20038;-49
2023/12/27 03:23:48;;;;;;;0.95;0.60;;;9.20;99.90;;;;;;5147322;27;20172;-48
2023/12/27 03:26:13;;;;;;;0.60;0.60;;;9.20;99.90;;;;;;5147264;27;20035;-49
2023/12/27 03:28:39;;;;;;;0.60;0.60;;;9.20;99.90;;;;;;5147294;27;20039;-48
2023/12/27 03:31:05;;;;;;;0.50;0.50;;;9.30;99.90;;;;;;5147006;27;20027;-48
2023/12/27 03:33:30;;;;;;;0.52;0.52;;;9.30;99.90;;;;;;5147009;27;20277;-48
2023/12/27 03:35:56;;;;;;;0.50;0.50;;;9.50;99.90;;;;;;5146193;27;20094;-48
2023/12/27 03:38:22;;;;;;;0.55;0.55;;;9.50;99.90;;;;;;5147103;27;20023;-49
2023/12/27 03:40:48;;;;;;;0.60;0.60;;;9.50;99.90;;;;;;5146931;27;20300;-48
2023/12/27 03:43:14;;;;;;;0.50;0.50;;;9.50;99.90;;;;;;5146952;27;20086;-48
2023/12/27 03:45:39;;;;;;;0.50;0.50;;;9.60;99.90;;;;;;5146531;27;20023;-49
2023/12/27 03:48:05;;;;;;;1.75;0.70;;;9.50;99.90;;;;;;5146917;27;20162;-49
2023/12/27 03:50:31;;;;;;;1.25;0.60;;;9.50;99.90;;;;;;5146953;27;20031;-50
2023/12/27 03:52:57;;;;;;;1.33;0.80;;;9.60;99.90;;;;;;5145603;27;20162;-50
2023/12/27 03:55:24;;;;;;;0.50;0.50;;;9.60;99.90;;;;;;5146702;27;20079;-49
2023/12/27 03:57:49;;;;;;;1.27;0.63;;;9.70;99.90;;;;;;5146956;27;20031;-48
2023/12/27 04:00:15;;;;;;;0.50;0.50;;;9.70;99.90;;;;;;5145753;28;20042;-49
2023/12/27 04:02:41;;;;;;;0.70;0.60;;;9.70;99.90;;;;;;5146269;28;20084;-49
2023/12/27 04:05:07;;;;;;;2.63;0.52;;;9.70;99.90;;;;;;5145830;28;20027;-48
2023/12/27 04:07:33;;;;;;;1.27;0.60;;;9.70;99.90;;;;;;5146570;27;20036;-49
2023/12/27 04:09:59;;;;;;;1.90;0.60;;;9.70;99.90;;;;;;5148495;27;20365;-50
2023/12/27 04:12:24;;;;;;;2.03;0.65;;;9.60;99.90;;;;;;5151085;27;20341;-51
2023/12/27 04:14:50;;;;;;;0.50;0.50;;;9.70;99.90;;;;;;5149768;27;20027;-51
2023/12/27 04:17:15;;;;;;;1.17;0.52;;;9.70;99.90;;;;;;5150710;27;20027;-50
2023/12/27 04:19:41;;;;;;;0.60;0.60;;;9.70;99.90;;;;;;5150480;27;20083;-50
2023/12/27 04:22:07;;;;;;;0.40;0.40;;;9.80;99.90;;;;;;5150856;27;20027;-52
2023/12/27 04:24:33;;;;;;;0.50;0.50;;;9.80;99.90;;;;;;5149795;27;20023;-52
2023/12/27 04:26:58;;;;;;;0.60;0.60;;;9.90;99.90;;;;;;5150791;27;20237;-52
2023/12/27 04:29:24;;;;;;;1.20;0.60;;;10.00;99.90;;;;;;5150886;27;20277;-51
2023/12/27 04:31:50;;;;;;;1.15;0.60;;;10.00;99.90;;;;;;5150695;27;20055;-51
2023/12/27 04:34:15;;;;;;;0.60;0.52;;;10.10;99.90;;;;;;5149366;27;20030;-52
2023/12/27 04:36:42;;;;;;;0.68;0.68;;;10.20;99.90;;;;;;5150162;27;20073;-51
2023/12/27 04:39:07;;;;;;;0.52;0.52;;;10.30;99.90;;;;;;5150471;27;20069;-52
2023/12/27 04:41:33;;;;;;;0.50;0.50;;;10.30;99.90;;;;;;5150333;27;20030;-51
2023/12/27 04:43:59;;;;;;;0.75;0.60;;;10.30;99.90;;;;;;5150420;27;20260;-53
2023/12/27 04:46:25;;;;;;;0.50;0.50;;;10.30;99.90;;;;;;5150271;27;20038;-52
2023/12/27 04:48:50;;;;;;;0.63;0.57;;;10.30;99.90;;;;;;5149070;27;20027;-52
2023/12/27 04:51:16;;;;;;;0.50;0.50;;;10.40;99.90;;;;;;5149059;27;20086;-52
2023/12/27 04:53:42;;;;;;;0.60;0.60;;;10.50;99.90;;;;;;5150117;27;20094;-52
2023/12/27 04:56:08;;;;;;;1.25;0.63;;;10.50;99.90;;;;;;5150197;27;20023;-52
2023/12/27 04:58:35;;;;;;;1.38;0.60;;;10.50;99.90;;;;;;5149185;27;20094;-49
2023/12/27 05:01:07;;;;;;;1.77;0.68;;;10.50;99.90;;;;;;5150024;27;20031;-51
2023/12/27 05:03:38;;;;;;;0.60;0.60;;;10.60;99.90;;;;;;5150051;27;20029;-51
2023/12/27 05:06:08;;;;;;;0.70;0.70;;;10.60;99.90;;;;;;5150004;27;20031;-51
2023/12/27 05:08:34;;;;;;;0.60;0.60;;;10.50;99.90;;;;;;5149587;27;20074;-51
2023/12/27 05:10:59;;;;;;;0.55;0.55;;;10.50;99.90;;;;;;5149810;27;20027;-52
2023/12/27 05:13:25;;;;;;;2.90;0.70;;;10.40;99.90;;;;;;5149782;27;20322;-52
2023/12/27 05:15:51;;;;;;;0.60;0.60;;;10.50;99.90;;;;;;5149829;27;20037;-49
2023/12/27 05:18:16;;;;;;;0.52;0.52;;;10.40;99.90;;;;;;5149848;27;20078;-50
2023/12/27 05:20:42;;;;;;;0.50;0.50;;;10.40;99.90;;;;;;5149290;27;20033;-49
2023/12/27 05:23:08;;;;;;;0.63;0.60;;;10.50;99.90;;;;;;5149772;27;20038;-50
2023/12/27 05:25:33;;;;;;;0.50;0.50;;;10.60;99.90;;;;;;5149614;27;20277;-49
2023/12/27 05:27:59;;;;;;;0.82;0.60;;;10.60;99.90;;;;;;5148474;27;20288;-50
2023/12/27 05:30:24;;;;;;;1.02;0.65;;;10.70;99.90;;;;;;5149541;27;20034;-49
2023/12/27 05:32:50;;;;;;;0.98;0.80;;;10.60;99.90;;;;;;5148330;27;20090;-51
2023/12/27 05:35:16;;;;;;;0.60;0.60;;;10.60;99.90;;;;;;5149293;27;20071;-51
2023/12/27 05:37:42;;;;;;;0.75;0.68;;;10.60;99.90;;;;;;5148944;27;20061;-50
2023/12/27 05:40:08;;;;;;;0.70;0.70;;;10.60;99.90;;;;;;5149359;27;20023;-48
2023/12/27 05:42:33;;;;;;;1.40;0.60;;;10.60;99.90;;;;;;5148877;27;20030;-52
2023/12/27 05:44:59;;;;;;;0.60;0.60;;;10.60;99.90;;;;;;5149170;27;20031;-51
2023/12/27 05:47:25;;;;;;;0.60;0.60;;;10.70;99.90;;;;;;5147998;27;20050;-49
2023/12/27 05:49:50;;;;;;;1.90;0.70;;;10.70;99.90;;;;;;5149112;27;20194;-51
2023/12/27 05:52:16;;;;;;;1.35;0.50;;;10.70;99.90;;;;;;5149173;27;20315;-51
2023/12/27 05:54:42;;;;;;;1.48;0.98;;;10.70;99.90;;;;;;5148578;27;20031;-51
2023/12/27 05:57:08;;;;;;;0.65;0.65;;;10.70;99.90;;;;;;5148816;27;20072;-52
2023/12/27 05:59:33;;;;;;;1.08;0.90;;;10.60;99.90;;;;;;5148941;27;20038;-52
2023/12/27 06:01:59;;;;;;;1.33;0.70;;;10.60;99.90;;;;;;5148831;27;20087;-51
2023/12/27 06:04:27;;;;;;;2.03;0.90;;;10.60;99.90;;;;;;5147874;27;20030;-52
2023/12/27 06:06:53;;;;;;;1.85;0.80;;;10.60;99.90;;;;;;5148899;27;20188;-52
2023/12/27 06:09:18;;;;;;;0.75;0.70;;;10.60;99.90;;;;;;5148356;27;20039;-52
2023/12/27 06:11:44;;;;;;;2.72;0.70;;;10.60;99.90;;;;;;5148804;27;20027;-51
2023/12/27 06:14:10;;;;;;;0.55;0.55;;;10.60;99.90;;;;;;5148251;27;20142;-52
2023/12/27 06:16:36;;;;;;;1.80;1.10;;;10.60;99.90;;;;;;5147895;27;20096;-51
2023/12/27 06:19:02;;;;;;;1.30;0.70;;;10.70;99.90;;;;;;5130415;27;20058;-51
2023/12/27 06:21:28;;;;;;;5.13;0.90;;;10.70;99.90;;;;;;5148510;27;20031;-50
2023/12/27 06:23:54;;;;;;;0.50;0.50;;;10.70;99.90;;;;;;5147346;27;20219;-49
2023/12/27 06:26:20;;;;;;;1.33;0.90;;;10.70;99.90;;;;;;5147923;27;20086;-51
2023/12/27 06:28:46;;;;;;;2.13;0.80;;;10.70;99.90;;;;;;5147942;27;20083;-51
2023/12/27 06:31:11;;;;;;;1.65;0.88;;;10.70;99.90;;;;;;5147329;27;20023;-52
2023/12/27 06:33:37;;;;;;;1.90;0.80;;;10.70;99.90;;;;;;5148117;27;20046;-51
2023/12/27 06:36:06;;;;;;;3.13;0.88;;;10.80;99.90;;;;;;5148084;27;20023;-49
2023/12/27 06:38:32;;;;;;;0.70;0.70;;;10.80;99.90;;;;;;5148215;27;20011;-52
2023/12/27 06:41:00;;;;;;;1.27;0.60;;;10.80;99.90;;;;;;5147899;27;20061;-52
2023/12/27 06:43:26;;;;;;;0.70;0.70;;;10.80;99.90;;;;;;5147943;27;20273;-50
2023/12/27 06:45:52;;;;;;;1.15;0.65;;;10.80;99.90;;;;;;5146822;27;20029;-47
2023/12/27 06:48:17;;;;;;;1.83;0.80;;;10.80;99.90;;;;;;5148132;27;20158;-49
2023/12/27 06:50:43;;;;;;;0.60;0.60;;;10.90;99.90;;;;;;5148014;27;20034;-48
2023/12/27 06:53:09;;;;;;;0.60;0.60;;;10.90;99.90;;;;;;5146716;27;20023;-48
2023/12/27 06:55:34;;;;;;;1.75;0.90;;;10.90;99.90;;;;;;5147006;27;20064;-48
2023/12/27 06:58:00;;;;;;;0.82;0.55;;;10.90;99.90;;;;;;5147239;27;20035;-48
2023/12/27 07:00:28;;;;;;;1.13;0.60;;;10.90;99.90;;;;;;5147271;27;20293;-48
2023/12/27 07:02:54;;;;;;;1.17;1.08;;;10.90;99.90;;;;;;5147925;27;20027;-49
2023/12/27 07:05:20;;;;;;;0.60;0.60;;;10.90;99.90;;;;;;5147628;27;20035;-51
2023/12/27 07:07:46;;;;;;;0.63;0.63;;;10.90;99.90;;;;;;5147416;27;20015;-50
2023/12/27 07:10:12;;;;;;;2.05;0.82;;;10.90;99.90;;;;;;5147530;27;20039;-51
2023/12/27 07:12:38;;;;;;;0.60;0.60;;;11.00;99.90;;;;;;5147564;27;20038;-51
2023/12/27 07:15:05;;;;;;;0.68;0.68;;;11.00;99.90;;;;;;5147231;27;20023;-51
2023/12/27 07:17:31;;;;;;;5.65;1.17;;;11.00;99.90;;;;;;5146433;27;20026;-51
2023/12/27 07:19:57;;;;;;;0.73;0.68;;;11.00;99.90;;;;;;5147364;27;20058;-51
2023/12/27 07:22:22;;;;;;;1.80;0.82;;;11.00;99.90;;;;;;5147356;27;20023;-51
2023/12/27 07:24:48;;;;;;;6.75;1.33;;;11.00;99.90;;;;;;5146993;27;20031;-51
2023/12/27 07:27:14;;;;;;;2.33;1.02;;;11.00;99.90;;;;;;5147148;27;20053;-51
2023/12/27 07:29:40;;;;;;;5.65;1.35;;;11.00;99.90;;;;;;5145940;27;20072;-50
2023/12/27 07:32:06;;;;;;;2.53;0.80;;;11.00;99.90;;;;;;5147301;27;20026;-51
2023/12/27 07:34:32;;;;;;;2.78;1.30;;;11.00;99.90;;;;;;5146156;27;20045;-51
2023/12/27 07:36:58;;;;;;;1.88;0.80;;;11.10;99.90;;;;;;5145903;27;20080;-50
2023/12/27 07:39:23;;;;;;;2.67;1.10;;;11.10;99.90;;;;;;5147051;27;20019;-52
2023/12/27 07:41:49;;;;;;;2.38;0.82;;;11.00;99.90;;;;;;5146729;27;20035;-47
2023/12/27 07:44:16;;;;;;;2.15;0.93;;;11.10;99.90;;;;;;5146769;27;20026;-50
2023/12/27 07:46:43;;;;;;;0.77;0.68;;;11.10;99.90;;;;;;5146667;27;20035;-50
2023/12/27 07:49:08;;;;;;;1.85;0.85;;;11.10;99.90;;;;;;5146084;27;20138;-50
2023/12/27 07:51:34;;;;;;;0.80;0.70;;;11.10;99.90;;;;;;5146742;27;20211;-51
2023/12/27 07:54:00;;;;;;;1.80;1.13;;;11.10;99.90;;;;;;5146817;27;20082;-49
2023/12/27 07:56:26;;;;;;;1.42;0.75;;;11.10;99.90;;;;;;5146804;28;20185;-48
2023/12/27 07:58:53;;;;;;;2.28;0.80;;;11.10;99.90;;;;;;5145463;27;20058;-49
2023/12/27 08:01:19;;;;;;;2.22;0.65;;;11.20;99.90;;;;;;5146346;28;20235;-48
2023/12/27 08:03:45;;;;;;;0.80;0.63;;;11.20;99.90;;;;;;5146650;28;20073;-50
2023/12/27 08:06:11;;;;;;;2.05;0.90;;;11.20;99.90;;;;;;5145176;28;20030;-49
2023/12/27 08:08:36;;;;;;;1.67;0.80;;;11.20;99.90;;;;;;5146608;28;20070;-49
2023/12/27 08:11:05;;;;;;;2.25;0.80;;;11.30;99.90;;;;;;5146664;28;20031;-48
2023/12/27 08:13:36;;;;;;;3.25;0.90;;;11.20;99.90;;;;;;5146627;28;20030;-50
2023/12/27 08:16:02;;;;;;;1.73;0.70;;;11.30;99.90;;;;;;5145728;28;20082;-50
2023/12/27 08:18:27;;;;;;;0.85;0.60;;;11.30;99.90;;;;;;5146555;28;20096;-50
2023/12/27 08:20:53;;;;;;;2.72;0.73;;;11.30;99.90;;;;;;5146758;28;20027;-50
2023/12/27 08:23:19;;;;;;;4.72;0.80;;;11.40;99.90;;;;;;5146797;28;20336;-50
2023/12/27 08:25:45;;;;;;;1.05;0.70;;;11.40;99.90;;;;;;5146607;28;20100;-51
2023/12/27 08:28:10;;;;;;;2.28;0.82;;;11.40;99.90;;;;;;5146377;28;20142;-51
2023/12/27 08:30:36;;;;;;;2.85;1.35;;;11.50;99.90;;;;;;5146626;28;20090;-49
2023/12/27 08:33:09;;;;;;;1.60;0.68;;;11.50;99.90;;;;;;5146460;28;20031;-51
2023/12/27 08:35:35;;;;;;;1.48;0.70;;;11.60;99.90;;;;;;5146347;28;20011;-51
2023/12/27 08:38:00;;;;;;;4.32;1.00;;;11.60;99.90;;;;;;5145489;28;20090;-51
2023/12/27 08:40:26;;;;;;;2.25;0.82;;;11.60;99.90;;;;;;5146456;28;20094;-50
2023/12/27 08:42:53;;;;;;;4.57;0.70;;;11.60;99.90;;;;;;5145849;28;20023;-48
2023/12/27 08:45:19;;;;;;;3.50;0.90;;;11.70;99.90;;;;;;5146406;28;20034;-50
2023/12/27 08:47:44;;;;;;;5.80;1.88;;;11.70;99.90;;;;;;5146090;28;20035;-50
2023/12/27 08:50:10;;;;;;;2.40;1.00;;;11.70;99.90;;;;;;5146375;28;20166;-48
2023/12/27 08:52:37;;;;;;;2.90;0.98;;;11.70;99.90;;;;;;5146002;28;20023;-49
2023/12/27 08:55:05;;;;;;;2.75;0.80;;;11.70;99.90;;;;;;5147372;27;20027;-49
2023/12/27 08:57:30;;;;;;;5.47;1.20;;;11.80;99.90;;;;;;5149867;27;20022;-47
2023/12/27 08:59:56;;;;;;;5.50;1.65;;;11.80;99.90;;;;;;5148958;27;20050;-48
2023/12/27 09:02:23;;;;;;;5.30;1.58;;;11.80;99.90;;;;;;5149998;27;20035;-48
2023/12/27 09:04:49;;;;;;;1.05;0.90;;;11.80;99.90;;;;;;5148507;27;20154;-47
2023/12/27 09:07:14;;;;;;;0.95;0.90;;;11.90;99.90;;;;;;5149771;27;20034;-49
2023/12/27 09:09:40;;;;;;;10.73;1.35;;;11.90;99.90;;;;;;5149625;27;20231;-50
2023/12/27 09:12:06;;;;;;;2.08;0.95;;;11.90;99.90;;;;;;5149882;27;20092;-50
2023/12/27 09:14:32;;;;;;;2.65;1.10;;;11.90;99.90;;;;;;5150537;27;20082;-48
2023/12/27 09:16:58;;;;;;;8.15;1.30;;;12.00;99.90;;;;;;5149642;27;20260;-49
2023/12/27 09:19:23;;;;;;;5.45;1.60;;;12.00;99.90;;;;;;5149819;27;20303;-50
2023/12/27 09:21:49;;;;;;;4.10;1.70;;;12.00;99.90;;;;;;5149231;27;20188;-50
2023/12/27 09:24:15;;;;;;;8.02;1.63;;;12.00;99.90;;;;;;5148572;27;20309;-50
2023/12/27 09:26:40;;;;;;;5.60;1.45;;;12.00;99.90;;;;;;5148367;27;20026;-48
2023/12/27 09:29:09;;;;;;;5.50;1.30;;;12.00;99.90;;;;;;5149494;27;20082;-47
2023/12/27 09:31:35;;;;;;;4.80;1.40;;;12.00;99.90;;;;;;5131502;27;20023;-47
2023/12/27 09:34:00;;;;;;;7.90;1.88;;;12.00;99.90;;;;;;5149262;27;20030;-48
2023/12/27 09:36:26;;;;;;;5.75;1.60;;;12.10;99.90;;;;;;5148406;27;20027;-49
2023/12/27 09:38:52;;;;;;;9.23;1.60;;;12.00;99.90;;;;;;5149036;27;20301;-48
2023/12/27 09:41:18;;;;;;;8.32;1.73;;;12.10;99.90;;;;;;5148929;27;20066;-48
2023/12/27 09:43:43;;;;;;;5.13;1.63;;;12.10;99.90;;;;;;5148933;27;20300;-50
2023/12/27 09:46:10;;;;;;;10.02;2.28;;;12.10;99.90;;;;;;5148915;27;20284;-50
2023/12/27 09:48:36;;;;;;;6.85;1.63;;;12.00;99.90;;;;;;5149186;27;20015;-49
2023/12/27 09:51:02;;;;;;;5.45;1.52;;;12.00;99.90;;;;;;5148054;27;20071;-51
2023/12/27 09:53:28;;;;;;;10.23;2.13;;;12.10;99.90;;;;;;5148114;27;20227;-50
2023/12/27 09:55:54;;;;;;;6.82;2.13;;;12.00;99.90;;;;;;5149022;27;20199;-51
2023/12/27 09:58:20;;;;;;;11.45;2.03;;;12.00;99.90;;;;;;5147729;27;20030;-51
2023/12/27 10:00:45;;;;;;;15.00;2.13;;;12.00;99.90;;;;;;5148953;27;20033;-52
2023/12/27 10:03:13;;;;;;;11.40;2.53;;;12.00;99.90;;;;;;5130631;27;20109;-51
2023/12/27 10:06:12;;;;;;;11.63;2.10;;;12.00;99.90;;;;;;5147598;27;20023;-51
2023/12/27 10:08:39;;;;;;;3.35;1.27;;;12.00;99.90;;;;;;5114079;27;20066;-48
2023/12/27 10:11:07;;;;;;;5.72;1.77;;;12.00;99.90;;;;;;5148181;27;20045;-50
2023/12/27 10:13:33;;;;;;;11.40;2.00;;;12.00;99.90;;;;;;5148699;27;20031;-48
2023/12/27 10:15:59;;;;;;;4.40;1.55;;;12.00;99.90;;;;;;5130659;27;20031;-48
2023/12/27 10:18:24;;;;;;;4.45;1.38;;;12.00;99.90;;;;;;5148470;27;20019;-51
2023/12/27 10:20:51;;;;;;;5.28;1.55;;;12.00;99.90;;;;;;5148007;27;20224;-49
2023/12/27 10:23:16;;;;;;;11.27;2.20;;;12.00;99.90;;;;;;5147183;27;20144;-49
2023/12/27 10:25:43;;;;;;;10.10;1.92;;;11.90;99.90;;;;;;5148455;27;20035;-48
2023/12/27 10:28:09;;;;;;;5.90;1.88;;;11.90;99.90;;;;;;5130123;27;20034;-48
2023/12/27 10:30:34;;;;;;;4.45;1.30;;;11.90;99.90;;;;;;5148150;27;20123;-48
2023/12/27 10:33:01;;;;;;;13.43;2.58;;;11.90;99.90;;;;;;5146909;27;20061;-47
2023/12/27 10:35:27;;;;;;;13.35;2.47;;;11.90;99.90;;;;;;5147117;27;20038;-48
2023/12/27 10:38:05;;;;;;;15.18;3.22;;;11.90;99.90;;;;;;5148025;27;20291;-50
2023/12/27 10:40:32;;;;;;;14.43;3.40;;;12.00;99.90;;;;;;5148033;27;20122;-51
2023/12/27 10:42:58;;;;;;;9.70;2.20;;;12.00;99.90;;;;;;5146671;27;20027;-48
2023/12/27 10:45:24;;;;;;;11.27;2.03;;;12.00;99.90;;;;;;5148142;27;20070;-49
2023/12/27 10:47:56;;;;;;;13.77;2.17;;;12.00;99.90;;;;;;5147258;27;20059;-49
2023/12/27 10:50:22;;;;;;;12.23;2.20;;;12.00;99.90;;;;;;5147913;27;20030;-48
2023/12/27 10:53:02;;;;;;;15.07;2.80;;;12.00;99.90;;;;;;5146440;27;20222;-51
2023/12/27 10:55:28;;;;;;;8.55;1.90;;;12.00;99.90;;;;;;5146594;27;20185;-48
2023/12/27 10:57:55;;;;;;;8.95;2.10;;;11.90;99.90;;;;;;5146725;27;20090;-48
2023/12/27 11:00:21;;;;;;;9.88;2.20;;;11.90;99.90;;;;;;5147726;27;20034;-48
2023/12/27 11:02:47;;;;;;;11.15;2.50;;;11.90;99.90;;;;;;5112302;27;20030;-48
2023/12/27 11:05:16;;;;;;;14.15;2.75;;;11.90;99.90;;;;;;5147523;27;20275;-49
2023/12/27 11:07:45;;;;;;;11.02;2.25;;;11.90;99.90;;;;;;5147319;27;20246;-50
2023/12/27 11:10:12;;;;;;;10.37;2.43;;;11.90;99.90;;;;;;5146452;27;20054;-48
2023/12/27 11:12:37;;;;;;;9.45;1.80;;;11.90;99.90;;;;;;5129281;27;20034;-51
2023/12/27 11:15:04;;;;;;;6.07;1.73;;;11.90;99.90;;;;;;5147097;27;20027;-52
2023/12/27 11:17:33;;;;;;;8.45;1.45;;;12.00;99.90;;;;;;5145579;27;20047;-57
2023/12/27 11:19:59;;;;;;;13.55;2.40;;;12.00;99.90;;;;;;5147447;27;20242;-50
2023/12/27 11:22:25;;;;;;;15.02;2.08;;;12.00;99.90;;;;;;5147186;27;20031;-50
2023/12/27 11:24:51;;;;;;;11.48;2.80;;;12.10;99.90;;;;;;5147005;27;20230;-50
2023/12/27 11:27:17;;;;;;;9.70;2.60;;;12.10;99.90;;;;;;5146167;27;20035;-49
2023/12/27 11:29:43;;;;;;;12.35;2.45;;;12.10;99.90;;;;;;5146873;27;20061;-51
2023/12/27 11:32:08;;;;;;;9.63;2.53;;;12.20;99.90;;;;;;5145738;27;20019;-50
2023/12/27 11:34:34;;;;;;;16.77;4.03;;;12.20;99.90;;;;;;5145646;27;20265;-49
2023/12/27 11:37:00;;;;;;;82.93;38.55;;;12.20;99.90;;;;;;5146648;27;20031;-51
2023/12/27 11:39:26;;;;;;;18.77;6.75;;;12.20;99.90;;;;;;5146780;27;20091;-52
2023/12/27 11:41:52;;;;;;;116.72;46.53;;;12.20;99.90;;;;;;5145918;27;20214;-53
2023/12/27 11:44:18;;;;;;;6.80;3.38;;;12.10;99.90;;;;;;5146795;27;20053;-52
2023/12/27 11:46:44;;;;;;;6.93;2.58;;;11.90;99.90;;;;;;5145521;27;20154;-52
2023/12/27 11:49:17;;;;;;;1.27;1.17;;;11.50;99.90;;;;;;5146591;27;20035;-51
2023/12/27 11:51:43;;;;;;;1.65;1.55;;;11.30;99.90;;;;;;5145891;27;20015;-51
2023/12/27 11:54:08;;;;;;;3.50;2.05;;;11.20;99.90;;;;;;5145689;27;20023;-51
2023/12/27 11:56:35;;;;;;;0.95;0.90;;;11.10;99.90;;;;;;5145530;27;20050;-52
2023/12/27 11:59:01;;;;;;;0.50;0.50;;;11.10;99.90;;;;;;5146807;27;20330;-51
2023/12/27 12:01:31;;;;;;;0.60;0.60;;;11.10;99.90;;;;;;5145261;28;20035;-52
2023/12/27 12:04:03;;;;;;;0.75;0.73;;;11.10;99.90;;;;;;5146744;28;20031;-51
2023/12/27 12:06:53;;;;;;;0.50;0.50;;;11.20;99.90;;;;;;5145210;28;20102;-48
2023/12/27 12:09:20;;;;;;;;;;;11.20;99.90;;;;;;5146794;28;20058;-48
2023/12/27 12:11:46;;;;;;;0.95;0.95;;;11.20;99.90;;;;;;5145472;28;19953;-50
2023/12/27 12:14:12;;;;;;;0.50;0.50;;;11.20;99.90;;;;;;5146564;28;20030;-48
2023/12/27 12:16:38;;;;;;;0.40;0.40;;;11.20;99.90;;;;;;5145572;28;20092;-48
2023/12/27 12:19:04;;;;;;;19.00;3.78;;;11.10;99.90;;;;;;5145332;28;20330;-50
2023/12/27 12:21:30;;;;;;;19.02;3.15;;;11.10;99.90;;;;;;5146301;28;20027;-50
2023/12/27 12:23:56;;;;;;;13.25;3.47;;;11.00;99.90;;;;;;5128152;28;20297;-51
2023/12/27 12:26:21;;;;;;;10.40;2.45;;;11.00;99.90;;;;;;5146432;28;20328;-50
2023/12/27 12:28:55;;;;;;;22.35;3.20;;;11.00;99.90;;;;;;5146350;27;20026;-51
2023/12/27 12:31:20;;;;;;;25.77;3.60;;;11.00;99.90;;;;;;5149530;27;20138;-50
2023/12/27 12:33:46;;;;;;;13.35;2.58;;;11.00;99.90;;;;;;5150140;27;20027;-48
2023/12/27 12:36:12;;;;;;;25.10;3.95;;;11.10;99.90;;;;;;5149818;27;20020;-49
2023/12/27 12:38:37;;;;;;;24.25;6.47;;;11.10;99.90;;;;;;5150423;27;20034;-48
2023/12/27 12:41:03;;;;;;;14.07;2.55;;;11.10;99.90;;;;;;5150539;27;20051;-48
2023/12/27 12:43:29;;;;;;;23.85;5.68;;;11.10;99.90;;;;;;5149811;27;20265;-51